sensor_id;sensor_type;location;lat;lon;timestamp;pressure;altitude;pressure_sealevel;temperature;humidity
11806;BME280;5960;42.602;23.482;2022-07-29T00:00:49;93602.22;;;20.72;77.02
11806;BME280;5960;42.602;23.482;2022-07-29T00:03:15;93603.94;;;20.78;77.12
11806;BME280;5960;42.602;23.482;2022-07-29T00:05:42;93610.50;;;20.70;77.06
11806;BME280;5960;42.602;23.482;2022-07-29T00:08:09;93608.03;;;20.86;76.49
11806;BME280;5960;42.602;23.482;2022-07-29T00:10:37;93615.34;;;20.91;75.78
11806;BME280;5960;42.602;23.482;2022-07-29T00:13:04;93616.16;;;20.74;77.76
11806;BME280;5960;42.602;23.482;2022-07-29T00:15:30;93620.44;;;20.75;77.69
11806;BME280;5960;42.602;23.482;2022-07-29T00:17:57;93621.22;;;20.70;78.19
11806;BME280;5960;42.602;23.482;2022-07-29T00:20:24;93629.09;;;20.77;78.44
11806;BME280;5960;42.602;23.482;2022-07-29T00:22:51;93631.91;;;20.70;78.67
11806;BME280;5960;42.602;23.482;2022-07-29T00:25:18;93633.53;;;20.71;79.04
11806;BME280;5960;42.602;23.482;2022-07-29T00:27:47;93626.56;;;20.70;78.71
11806;BME280;5960;42.602;23.482;2022-07-29T00:30:14;93634.41;;;20.55;79.09
11806;BME280;5960;42.602;23.482;2022-07-29T00:32:41;93631.78;;;20.60;78.74
11806;BME280;5960;42.602;23.482;2022-07-29T00:35:08;93630.88;;;20.54;79.36
11806;BME280;5960;42.602;23.482;2022-07-29T00:37:52;93634.97;;;20.57;79.71
11806;BME280;5960;42.602;23.482;2022-07-29T00:40:19;93633.66;;;20.42;79.57
11806;BME280;5960;42.602;23.482;2022-07-29T00:42:48;93621.34;;;20.41;80.10
11806;BME280;5960;42.602;23.482;2022-07-29T00:45:16;93611.69;;;20.40;79.76
11806;BME280;5960;42.602;23.482;2022-07-29T00:47:43;93601.19;;;20.34;79.70
11806;BME280;5960;42.602;23.482;2022-07-29T00:50:11;93609.47;;;20.32;78.74
11806;BME280;5960;42.602;23.482;2022-07-29T00:52:40;93611.69;;;20.40;77.68
11806;BME280;5960;42.602;23.482;2022-07-29T00:55:09;93606.75;;;20.49;77.57
11806;BME280;5960;42.602;23.482;2022-07-29T00:57:36;93611.03;;;20.50;77.51
11806;BME280;5960;42.602;23.482;2022-07-29T01:00:07;93608.69;;;20.54;77.06
11806;BME280;5960;42.602;23.482;2022-07-29T01:02:35;93615.41;;;20.56;76.74
11806;BME280;5960;42.602;23.482;2022-07-29T01:05:01;93615.50;;;20.44;77.43
11806;BME280;5960;42.602;23.482;2022-07-29T01:07:29;93617.13;;;20.45;78.07
11806;BME280;5960;42.602;23.482;2022-07-29T01:09:58;93623.72;;;20.38;78.31
11806;BME280;5960;42.602;23.482;2022-07-29T01:12:26;93610.44;;;20.26;79.00
11806;BME280;5960;42.602;23.482;2022-07-29T01:14:54;93602.41;;;20.26;78.82
11806;BME280;5960;42.602;23.482;2022-07-29T01:17:27;93606.28;;;20.35;79.13
11806;BME280;5960;42.602;23.482;2022-07-29T01:20:00;93605.84;;;20.43;78.50
11806;BME280;5960;42.602;23.482;2022-07-29T01:22:36;93598.88;;;20.42;78.36
11806;BME280;5960;42.602;23.482;2022-07-29T01:25:17;93605.56;;;20.40;77.90
11806;BME280;5960;42.602;23.482;2022-07-29T01:28:04;93609.19;;;20.34;78.64
11806;BME280;5960;42.602;23.482;2022-07-29T01:30:37;93609.38;;;20.27;77.85
11806;BME280;5960;42.602;23.482;2022-07-29T01:33:08;93606.22;;;20.30;77.54
11806;BME280;5960;42.602;23.482;2022-07-29T01:35:38;93614.25;;;20.30;77.18
11806;BME280;5960;42.602;23.482;2022-07-29T01:38:09;93607.16;;;20.41;76.58
11806;BME280;5960;42.602;23.482;2022-07-29T01:40:42;93604.97;;;20.38;76.45
11806;BME280;5960;42.602;23.482;2022-07-29T01:43:14;93599.94;;;20.41;77.21
11806;BME280;5960;42.602;23.482;2022-07-29T01:45:48;93597.41;;;20.52;77.10
11806;BME280;5960;42.602;23.482;2022-07-29T01:48:20;93597.41;;;20.52;76.95
11806;BME280;5960;42.602;23.482;2022-07-29T01:50:50;93590.03;;;20.59;76.41
11806;BME280;5960;42.602;23.482;2022-07-29T01:53:25;93583.22;;;20.73;75.63
11806;BME280;5960;42.602;23.482;2022-07-29T01:55:55;93589.88;;;20.49;74.90
11806;BME280;5960;42.602;23.482;2022-07-29T01:58:24;93582.59;;;20.44;75.46
11806;BME280;5960;42.602;23.482;2022-07-29T02:00:53;93583.31;;;20.39;76.45
11806;BME280;5960;42.602;23.482;2022-07-29T02:03:23;93585.28;;;20.44;76.98
11806;BME280;5960;42.602;23.482;2022-07-29T02:05:51;93582.91;;;20.48;77.26
11806;BME280;5960;42.602;23.482;2022-07-29T02:08:19;93581.28;;;20.47;76.75
11806;BME280;5960;42.602;23.482;2022-07-29T02:10:48;93576.00;;;20.52;77.29
11806;BME280;5960;42.602;23.482;2022-07-29T02:13:17;93572.91;;;20.60;77.01
11806;BME280;5960;42.602;23.482;2022-07-29T02:15:46;93563.44;;;20.74;75.88
11806;BME280;5960;42.602;23.482;2022-07-29T02:18:17;93569.78;;;20.68;75.41
11806;BME280;5960;42.602;23.482;2022-07-29T02:20:48;93567.25;;;20.79;75.08
11806;BME280;5960;42.602;23.482;2022-07-29T02:23:19;93576.91;;;20.80;75.52
11806;BME280;5960;42.602;23.482;2022-07-29T02:25:48;93577.53;;;20.87;74.53
11806;BME280;5960;42.602;23.482;2022-07-29T02:28:16;93584.50;;;20.88;74.58
11806;BME280;5960;42.602;23.482;2022-07-29T02:30:44;93578.41;;;20.93;74.01
11806;BME280;5960;42.602;23.482;2022-07-29T02:33:14;93572.91;;;20.82;74.79
11806;BME280;5960;42.602;23.482;2022-07-29T02:35:44;93579.91;;;20.66;75.45
11806;BME280;5960;42.602;23.482;2022-07-29T02:38:13;93586.34;;;20.65;75.92
11806;BME280;5960;42.602;23.482;2022-07-29T02:40:55;93584.72;;;20.64;76.47
11806;BME280;5960;42.602;23.482;2022-07-29T02:43:24;93568.41;;;20.66;76.64
11806;BME280;5960;42.602;23.482;2022-07-29T02:45:53;93576.75;;;20.69;76.75
11806;BME280;5960;42.602;23.482;2022-07-29T02:48:31;93576.91;;;20.80;75.67
11806;BME280;5960;42.602;23.482;2022-07-29T02:51:06;93573.34;;;20.96;74.48
11806;BME280;5960;42.602;23.482;2022-07-29T02:53:33;93570.66;;;20.96;74.33
11806;BME280;5960;42.602;23.482;2022-07-29T02:56:06;93570.66;;;20.96;74.92
11806;BME280;5960;42.602;23.482;2022-07-29T02:58:38;93569.13;;;21.00;75.19
11806;BME280;5960;42.602;23.482;2022-07-29T03:01:11;93562.44;;;21.03;74.67
11806;BME280;5960;42.602;23.482;2022-07-29T03:03:40;93564.00;;;20.99;74.76
11806;BME280;5960;42.602;23.482;2022-07-29T03:06:09;93566.09;;;20.97;74.87
11806;BME280;5960;42.602;23.482;2022-07-29T03:08:39;93569.13;;;21.00;74.91
11806;BME280;5960;42.602;23.482;2022-07-29T03:11:07;93571.66;;;21.12;74.90
11806;BME280;5960;42.602;23.482;2022-07-29T03:13:35;93564.91;;;21.10;74.75
11806;BME280;5960;42.602;23.482;2022-07-29T03:16:02;93566.88;;;20.92;75.34
11806;BME280;5960;42.602;23.482;2022-07-29T03:18:30;93561.50;;;20.92;75.29
11806;BME280;5960;42.602;23.482;2022-07-29T03:20:59;93563.50;;;21.02;72.83
11806;BME280;5960;42.602;23.482;2022-07-29T03:23:25;93564.63;;;21.06;73.84
11806;BME280;5960;42.602;23.482;2022-07-29T03:25:53;93561.50;;;21.14;72.39
11806;BME280;5960;42.602;23.482;2022-07-29T03:28:21;93559.53;;;21.04;70.95
11806;BME280;5960;42.602;23.482;2022-07-29T03:30:48;93562.63;;;20.96;71.09
11806;BME280;5960;42.602;23.482;2022-07-29T03:33:15;93558.78;;;20.87;72.29
11806;BME280;5960;42.602;23.482;2022-07-29T03:35:42;93557.47;;;20.89;72.17
11806;BME280;5960;42.602;23.482;2022-07-29T03:38:10;93556.34;;;20.85;71.97
11806;BME280;5960;42.602;23.482;2022-07-29T03:40:40;93549.38;;;20.84;72.72
11806;BME280;5960;42.602;23.482;2022-07-29T03:43:08;93564.19;;;20.70;73.77
11806;BME280;5960;42.602;23.482;2022-07-29T03:45:36;93570.00;;;20.84;73.66
11806;BME280;5960;42.602;23.482;2022-07-29T03:48:08;93564.09;;;20.82;73.21
11806;BME280;5960;42.602;23.482;2022-07-29T03:50:37;93565.16;;;20.81;73.16
11806;BME280;5960;42.602;23.482;2022-07-29T03:53:04;93572.44;;;20.85;73.16
11806;BME280;5960;42.602;23.482;2022-07-29T03:55:36;93573.19;;;20.81;73.68
11806;BME280;5960;42.602;23.482;2022-07-29T03:58:04;93572.16;;;20.87;73.82
11806;BME280;5960;42.602;23.482;2022-07-29T04:00:32;93573.78;;;20.88;73.90
11806;BME280;5960;42.602;23.482;2022-07-29T04:02:59;93572.50;;;20.91;74.48
11806;BME280;5960;42.602;23.482;2022-07-29T04:05:26;93580.56;;;20.96;74.59
11806;BME280;5960;42.602;23.482;2022-07-29T04:07:53;93576.38;;;21.05;74.45
11806;BME280;5960;42.602;23.482;2022-07-29T04:10:19;93580.25;;;21.14;74.53
11806;BME280;5960;42.602;23.482;2022-07-29T04:12:49;93574.13;;;21.19;71.95
11806;BME280;5960;42.602;23.482;2022-07-29T04:15:16;93573.97;;;21.31;72.21
11806;BME280;5960;42.602;23.482;2022-07-29T04:17:43;93577.94;;;21.23;72.49
11806;BME280;5960;42.602;23.482;2022-07-29T04:20:10;93582.47;;;21.23;71.94
11806;BME280;5960;42.602;23.482;2022-07-29T04:22:38;93583.16;;;21.13;72.36
11806;BME280;5960;42.602;23.482;2022-07-29T04:25:06;93583.09;;;21.08;72.37
11806;BME280;5960;42.602;23.482;2022-07-29T04:27:33;93577.75;;;21.08;71.80
11806;BME280;5960;42.602;23.482;2022-07-29T04:30:01;93578.88;;;21.12;72.28
11806;BME280;5960;42.602;23.482;2022-07-29T04:32:28;93580.75;;;21.11;72.81
11806;BME280;5960;42.602;23.482;2022-07-29T04:34:55;93577.31;;;21.16;71.81
11806;BME280;5960;42.602;23.482;2022-07-29T04:37:22;93579.00;;;21.22;71.76
11806;BME280;5960;42.602;23.482;2022-07-29T04:39:48;93575.34;;;21.33;72.09
11806;BME280;5960;42.602;23.482;2022-07-29T04:42:15;93577.34;;;21.48;72.21
11806;BME280;5960;42.602;23.482;2022-07-29T04:44:42;93580.22;;;21.64;71.42
11806;BME280;5960;42.602;23.482;2022-07-29T04:47:10;93586.47;;;21.75;71.96
11806;BME280;5960;42.602;23.482;2022-07-29T04:49:38;93590.00;;;21.81;72.50
11806;BME280;5960;42.602;23.482;2022-07-29T04:52:05;93590.91;;;21.91;71.84
11806;BME280;5960;42.602;23.482;2022-07-29T04:54:31;93592.91;;;22.06;70.62
11806;BME280;5960;42.602;23.482;2022-07-29T04:56:59;93588.41;;;22.17;70.91
11806;BME280;5960;42.602;23.482;2022-07-29T04:59:25;93598.22;;;22.39;69.50
11806;BME280;5960;42.602;23.482;2022-07-29T05:01:52;93602.88;;;22.54;69.45
11806;BME280;5960;42.602;23.482;2022-07-29T05:04:20;93603.75;;;22.65;68.63
11806;BME280;5960;42.602;23.482;2022-07-29T05:06:47;93596.56;;;22.81;67.19
11806;BME280;5960;42.602;23.482;2022-07-29T05:09:14;93605.50;;;22.97;66.99
11806;BME280;5960;42.602;23.482;2022-07-29T05:11:41;93607.41;;;23.07;67.30
11806;BME280;5960;42.602;23.482;2022-07-29T05:14:07;93608.78;;;23.20;67.45
11806;BME280;5960;42.602;23.482;2022-07-29T05:16:34;93603.50;;;23.30;66.04
11806;BME280;5960;42.602;23.482;2022-07-29T05:19:01;93610.25;;;23.43;64.87
11806;BME280;5960;42.602;23.482;2022-07-29T05:21:29;93610.81;;;23.61;63.72
11806;BME280;5960;42.602;23.482;2022-07-29T05:23:56;93613.50;;;23.76;63.72
11806;BME280;5960;42.602;23.482;2022-07-29T05:26:22;93613.53;;;23.92;63.87
11806;BME280;5960;42.602;23.482;2022-07-29T05:28:49;93617.06;;;24.02;63.41
11806;BME280;5960;42.602;23.482;2022-07-29T05:31:16;93618.13;;;24.17;63.10
11806;BME280;5960;42.602;23.482;2022-07-29T05:33:42;93615.16;;;24.34;62.58
11806;BME280;5960;42.602;23.482;2022-07-29T05:36:09;93621.34;;;24.50;62.37
11806;BME280;5960;42.602;23.482;2022-07-29T05:38:38;93615.66;;;24.62;62.63
11806;BME280;5960;42.602;23.482;2022-07-29T05:41:05;93621.59;;;24.74;63.53
11806;BME280;5960;42.602;23.482;2022-07-29T05:43:32;93619.13;;;24.78;63.42
11806;BME280;5960;42.602;23.482;2022-07-29T05:45:59;93620.97;;;24.93;63.57
11806;BME280;5960;42.602;23.482;2022-07-29T05:48:26;93624.50;;;24.93;62.45
11806;BME280;5960;42.602;23.482;2022-07-29T05:50:53;93624.56;;;24.73;62.59
11806;BME280;5960;42.602;23.482;2022-07-29T05:53:20;93628.59;;;24.81;63.24
11806;BME280;5960;42.602;23.482;2022-07-29T05:55:48;93628.31;;;24.77;61.83
11806;BME280;5960;42.602;23.482;2022-07-29T05:58:15;93620.50;;;24.86;62.92
11806;BME280;5960;42.602;23.482;2022-07-29T06:00:41;93625.28;;;24.94;62.75
11806;BME280;5960;42.602;23.482;2022-07-29T06:03:08;93626.28;;;25.14;63.44
11806;BME280;5960;42.602;23.482;2022-07-29T06:05:35;93623.00;;;25.32;62.06
11806;BME280;5960;42.602;23.482;2022-07-29T06:08:02;93623.88;;;25.12;62.88
11806;BME280;5960;42.602;23.482;2022-07-29T06:10:31;93623.03;;;25.22;63.26
11806;BME280;5960;42.602;23.482;2022-07-29T06:12:59;93624.66;;;25.23;63.27
11806;BME280;5960;42.602;23.482;2022-07-29T06:15:25;93627.53;;;25.42;62.58
11806;BME280;5960;42.602;23.482;2022-07-29T06:17:52;93633.94;;;25.57;62.81
11806;BME280;5960;42.602;23.482;2022-07-29T06:20:19;93633.25;;;25.80;60.80
11806;BME280;5960;42.602;23.482;2022-07-29T06:22:46;93634.22;;;25.95;60.03
11806;BME280;5960;42.602;23.482;2022-07-29T06:25:13;93629.34;;;26.02;60.30
11806;BME280;5960;42.602;23.482;2022-07-29T06:27:39;93623.91;;;26.07;60.07
11806;BME280;5960;42.602;23.482;2022-07-29T06:30:08;93631.94;;;26.18;58.66
11806;BME280;5960;42.602;23.482;2022-07-29T06:32:35;93634.53;;;26.33;58.84
11806;BME280;5960;42.602;23.482;2022-07-29T06:35:02;93632.72;;;26.53;58.29
11806;BME280;5960;42.602;23.482;2022-07-29T06:37:29;93633.19;;;26.60;57.45
11806;BME280;5960;42.602;23.482;2022-07-29T06:39:56;93636.19;;;26.58;58.14
11806;BME280;5960;42.602;23.482;2022-07-29T06:42:37;93630.81;;;26.53;57.70
11806;BME280;5960;42.602;23.482;2022-07-29T06:45:04;93626.63;;;26.66;57.80
11806;BME280;5960;42.602;23.482;2022-07-29T06:47:32;93624.94;;;26.76;56.62
11806;BME280;5960;42.602;23.482;2022-07-29T06:49:59;93633.09;;;26.70;57.13
11806;BME280;5960;42.602;23.482;2022-07-29T06:52:26;93625.53;;;26.67;57.56
11806;BME280;5960;42.602;23.482;2022-07-29T06:54:52;93620.00;;;26.83;56.47
11806;BME280;5960;42.602;23.482;2022-07-29T06:57:20;93611.78;;;26.93;55.59
11806;BME280;5960;42.602;23.482;2022-07-29T06:59:47;93627.59;;;27.05;55.53
11806;BME280;5960;42.602;23.482;2022-07-29T07:02:14;93626.63;;;27.20;54.25
11806;BME280;5960;42.602;23.482;2022-07-29T07:04:42;93628.34;;;27.35;54.31
11806;BME280;5960;42.602;23.482;2022-07-29T07:07:09;93637.09;;;27.51;53.58
11806;BME280;5960;42.602;23.482;2022-07-29T07:09:35;93636.38;;;27.65;52.11
11806;BME280;5960;42.602;23.482;2022-07-29T07:12:02;93628.75;;;27.67;51.22
11806;BME280;5960;42.602;23.482;2022-07-29T07:14:29;93632.72;;;27.74;51.55
11806;BME280;5960;42.602;23.482;2022-07-29T07:16:56;93631.09;;;27.73;51.90
11806;BME280;5960;42.602;23.482;2022-07-29T07:19:23;93623.13;;;27.82;52.06
11806;BME280;5960;42.602;23.482;2022-07-29T07:21:51;93623.13;;;27.82;51.57
11806;BME280;5960;42.602;23.482;2022-07-29T07:24:18;93628.66;;;28.10;52.22
11806;BME280;5960;42.602;23.482;2022-07-29T07:26:45;93625.44;;;28.27;51.10
11806;BME280;5960;42.602;23.482;2022-07-29T07:29:12;93617.25;;;28.46;50.31
11806;BME280;5960;42.602;23.482;2022-07-29T07:31:39;93615.56;;;28.50;49.81
11806;BME280;5960;42.602;23.482;2022-07-29T07:34:05;93616.50;;;28.74;50.13
11806;BME280;5960;42.602;23.482;2022-07-29T07:36:32;93612.44;;;28.90;49.23
11806;BME280;5960;42.602;23.482;2022-07-29T07:39:00;93609.22;;;28.88;47.22
11806;BME280;5960;42.602;23.482;2022-07-29T07:41:27;93613.34;;;29.00;46.59
11806;BME280;5960;42.602;23.482;2022-07-29T07:43:54;93605.22;;;28.86;46.85
11806;BME280;5960;42.602;23.482;2022-07-29T07:46:21;93608.44;;;28.21;45.41
11806;BME280;5960;42.602;23.482;2022-07-29T07:48:47;93606.78;;;28.06;46.81
11806;BME280;5960;42.602;23.482;2022-07-29T07:51:14;93607.31;;;27.89;46.53
11806;BME280;5960;42.602;23.482;2022-07-29T07:53:41;93614.66;;;27.70;45.37
11806;BME280;5960;42.602;23.482;2022-07-29T07:56:11;93608.94;;;27.90;45.22
11806;BME280;5960;42.602;23.482;2022-07-29T07:58:38;93607.69;;;27.83;45.91
11806;BME280;5960;42.602;23.482;2022-07-29T08:01:04;93612.16;;;27.92;47.23
11806;BME280;5960;42.602;23.482;2022-07-29T08:03:32;93603.25;;;28.25;46.08
11806;BME280;5960;42.602;23.482;2022-07-29T08:05:59;93608.75;;;28.53;45.58
11806;BME280;5960;42.602;23.482;2022-07-29T08:08:26;93612.78;;;28.70;44.46
11806;BME280;5960;42.602;23.482;2022-07-29T08:10:52;93616.94;;;28.95;43.33
11806;BME280;5960;42.602;23.482;2022-07-29T08:13:24;93618.97;;;29.03;43.46
11806;BME280;5960;42.602;23.482;2022-07-29T08:15:52;93616.03;;;29.13;43.53
11806;BME280;5960;42.602;23.482;2022-07-29T08:18:24;93616.03;;;29.13;42.57
11806;BME280;5960;42.602;23.482;2022-07-29T08:20:51;93616.34;;;29.26;43.43
11806;BME280;5960;42.602;23.482;2022-07-29T08:23:18;93608.81;;;29.23;42.10
11806;BME280;5960;42.602;23.482;2022-07-29T08:25:45;93612.03;;;28.97;42.02
11806;BME280;5960;42.602;23.482;2022-07-29T08:28:12;93610.06;;;28.22;44.05
11806;BME280;5960;42.602;23.482;2022-07-29T08:30:41;93602.56;;;28.33;44.11
11806;BME280;5960;42.602;23.482;2022-07-29T08:33:07;93605.72;;;28.55;43.27
11806;BME280;5960;42.602;23.482;2022-07-29T08:35:34;93607.44;;;28.50;45.19
11806;BME280;5960;42.602;23.482;2022-07-29T08:38:01;93606.53;;;28.41;43.76
11806;BME280;5960;42.602;23.482;2022-07-29T08:40:28;93602.84;;;28.65;45.33
11806;BME280;5960;42.602;23.482;2022-07-29T08:42:55;93599.97;;;28.75;43.93
11806;BME280;5960;42.602;23.482;2022-07-29T08:45:23;93600.22;;;28.60;44.06
11806;BME280;5960;42.602;23.482;2022-07-29T08:47:52;93597.91;;;28.67;45.60
11806;BME280;5960;42.602;23.482;2022-07-29T08:50:19;93594.38;;;29.00;45.89
11806;BME280;5960;42.602;23.482;2022-07-29T08:52:46;93593.13;;;29.34;45.72
11806;BME280;5960;42.602;23.482;2022-07-29T08:55:15;93594.59;;;29.68;44.00
11806;BME280;5960;42.602;23.482;2022-07-29T08:57:43;93594.41;;;29.87;41.56
11806;BME280;5960;42.602;23.482;2022-07-29T09:00:11;93606.44;;;29.72;42.31
11806;BME280;5960;42.602;23.482;2022-07-29T09:02:40;93594.91;;;29.89;42.55
11806;BME280;5960;42.602;23.482;2022-07-29T09:05:09;93600.81;;;30.05;42.16
11806;BME280;5960;42.602;23.482;2022-07-29T09:07:36;93591.75;;;30.10;42.63
11806;BME280;5960;42.602;23.482;2022-07-29T09:10:06;93586.69;;;29.80;41.88
11806;BME280;5960;42.602;23.482;2022-07-29T09:12:33;93584.97;;;29.84;43.19
11806;BME280;5960;42.602;23.482;2022-07-29T09:15:00;93591.31;;;30.16;43.42
11806;BME280;5960;42.602;23.482;2022-07-29T09:17:40;93588.88;;;29.92;42.07
11806;BME280;5960;42.602;23.482;2022-07-29T09:20:13;93583.47;;;30.15;41.88
11806;BME280;5960;42.602;23.482;2022-07-29T09:22:40;93592.00;;;30.22;41.47
11806;BME280;5960;42.602;23.482;2022-07-29T09:25:07;93602.44;;;30.29;43.41
11806;BME280;5960;42.602;23.482;2022-07-29T09:27:34;93590.75;;;30.51;42.57
11806;BME280;5960;42.602;23.482;2022-07-29T09:30:03;93600.53;;;30.84;40.77
11806;BME280;5960;42.602;23.482;2022-07-29T09:32:31;93585.72;;;31.07;39.33
11806;BME280;5960;42.602;23.482;2022-07-29T09:35:19;93589.03;;;31.36;39.13
11806;BME280;5960;42.602;23.482;2022-07-29T09:37:46;93595.63;;;31.70;38.39
11806;BME280;5960;42.602;23.482;2022-07-29T09:40:15;93597.59;;;31.96;39.18
11806;BME280;5960;42.602;23.482;2022-07-29T09:42:43;93582.19;;;32.09;38.04
11806;BME280;5960;42.602;23.482;2022-07-29T09:45:10;93591.97;;;32.19;38.72
11806;BME280;5960;42.602;23.482;2022-07-29T09:47:42;93588.94;;;32.11;37.94
11806;BME280;5960;42.602;23.482;2022-07-29T09:50:12;93588.28;;;32.23;37.98
11806;BME280;5960;42.602;23.482;2022-07-29T09:52:50;93582.97;;;32.45;37.73
11806;BME280;5960;42.602;23.482;2022-07-29T09:55:18;93593.38;;;32.51;37.45
11806;BME280;5960;42.602;23.482;2022-07-29T09:57:46;93593.06;;;32.53;37.06
11806;BME280;5960;42.602;23.482;2022-07-29T10:00:14;93584.13;;;31.91;36.91
11806;BME280;5960;42.602;23.482;2022-07-29T10:02:43;93575.63;;;31.66;37.18
11806;BME280;5960;42.602;23.482;2022-07-29T10:05:18;93576.69;;;31.47;37.35
11806;BME280;5960;42.602;23.482;2022-07-29T10:07:46;93571.59;;;31.55;38.27
11806;BME280;5960;42.602;23.482;2022-07-29T10:10:20;93566.94;;;32.17;37.63
11806;BME280;5960;42.602;23.482;2022-07-29T10:12:52;93564.41;;;32.20;36.56
11806;BME280;5960;42.602;23.482;2022-07-29T10:15:21;93561.91;;;32.63;36.27
11806;BME280;5960;42.602;23.482;2022-07-29T10:17:49;93550.50;;;33.08;34.92
11806;BME280;5960;42.602;23.482;2022-07-29T10:20:15;93561.28;;;33.05;33.36
11806;BME280;5960;42.602;23.482;2022-07-29T10:22:42;93552.81;;;32.97;35.21
11806;BME280;5960;42.602;23.482;2022-07-29T10:25:09;93549.72;;;33.38;35.78
11806;BME280;5960;42.602;23.482;2022-07-29T10:27:38;93549.59;;;33.55;33.91
11806;BME280;5960;42.602;23.482;2022-07-29T10:30:06;93548.94;;;33.58;33.80
11806;BME280;5960;42.602;23.482;2022-07-29T10:32:48;93548.56;;;33.09;34.17
11806;BME280;5960;42.602;23.482;2022-07-29T10:35:53;93534.75;;;33.14;33.85
11806;BME280;5960;42.602;23.482;2022-07-29T10:38:42;93537.75;;;32.91;34.75
11806;BME280;5960;42.602;23.482;2022-07-29T10:41:23;93544.81;;;33.22;33.72
11806;BME280;5960;42.602;23.482;2022-07-29T10:44:01;93539.50;;;32.39;34.62
11806;BME280;5960;42.602;23.482;2022-07-29T10:46:28;93532.66;;;32.81;34.89
11806;BME280;5960;42.602;23.482;2022-07-29T10:49:11;93526.66;;;33.26;35.01
11806;BME280;5960;42.602;23.482;2022-07-29T10:51:59;93524.88;;;33.22;34.00
11806;BME280;5960;42.602;23.482;2022-07-29T10:54:53;93531.50;;;32.82;34.37
11806;BME280;5960;42.602;23.482;2022-07-29T10:57:25;93524.88;;;33.00;35.29
11806;BME280;5960;42.602;23.482;2022-07-29T11:03:02;93527.38;;;33.14;33.76
11806;BME280;5960;42.602;23.482;2022-07-29T11:05:29;93518.41;;;33.05;33.69
11806;BME280;5960;42.602;23.482;2022-07-29T11:08:19;93521.03;;;33.23;33.46
11806;BME280;5960;42.602;23.482;2022-07-29T11:10:52;93521.22;;;33.69;32.99
11806;BME280;5960;42.602;23.482;2022-07-29T11:13:49;93523.03;;;32.75;32.02
11806;BME280;5960;42.602;23.482;2022-07-29T11:16:18;93523.50;;;32.85;34.00
11806;BME280;5960;42.602;23.482;2022-07-29T11:19:22;93518.41;;;33.35;32.79
11806;BME280;5960;42.602;23.482;2022-07-29T11:21:49;93513.63;;;33.53;33.80
11806;BME280;5960;42.602;23.482;2022-07-29T11:24:18;93517.28;;;33.57;32.38
11806;BME280;5960;42.602;23.482;2022-07-29T11:27:06;93514.25;;;33.29;33.57
11806;BME280;5960;42.602;23.482;2022-07-29T11:29:35;93511.09;;;33.18;33.06
11806;BME280;5960;42.602;23.482;2022-07-29T11:32:09;93509.28;;;33.01;32.71
11806;BME280;5960;42.602;23.482;2022-07-29T11:34:37;93513.31;;;33.25;33.15
11806;BME280;5960;42.602;23.482;2022-07-29T11:37:22;93504.41;;;33.07;33.20
11806;BME280;5960;42.602;23.482;2022-07-29T11:40:08;93506.41;;;33.27;31.87
11806;BME280;5960;42.602;23.482;2022-07-29T11:42:40;93497.59;;;33.22;32.74
11806;BME280;5960;42.602;23.482;2022-07-29T11:45:08;93501.78;;;32.89;32.90
11806;BME280;5960;42.602;23.482;2022-07-29T11:47:37;93505.53;;;32.76;33.25
11806;BME280;5960;42.602;23.482;2022-07-29T11:50:07;93502.63;;;33.11;33.00
11806;BME280;5960;42.602;23.482;2022-07-29T11:52:37;93493.66;;;33.31;32.70
11806;BME280;5960;42.602;23.482;2022-07-29T11:55:09;93498.09;;;33.45;31.62
11806;BME280;5960;42.602;23.482;2022-07-29T11:57:44;93493.16;;;33.59;32.31
11806;BME280;5960;42.602;23.482;2022-07-29T12:00:16;93505.97;;;33.46;32.00
11806;BME280;5960;42.602;23.482;2022-07-29T12:02:46;93490.94;;;33.74;31.94
11806;BME280;5960;42.602;23.482;2022-07-29T12:05:15;93496.06;;;33.97;31.37
11806;BME280;5960;42.602;23.482;2022-07-29T12:07:42;93491.31;;;34.06;31.57
11806;BME280;5960;42.602;23.482;2022-07-29T12:10:09;93497.00;;;34.01;30.54
11806;BME280;5960;42.602;23.482;2022-07-29T12:12:36;93497.22;;;33.96;31.57
11806;BME280;5960;42.602;23.482;2022-07-29T12:15:14;93500.09;;;34.12;30.76
11806;BME280;5960;42.602;23.482;2022-07-29T12:17:44;93496.00;;;34.05;31.03
11806;BME280;5960;42.602;23.482;2022-07-29T12:20:11;93496.06;;;33.97;31.47
11806;BME280;5960;42.602;23.482;2022-07-29T12:22:41;93488.31;;;34.32;31.20
11806;BME280;5960;42.602;23.482;2022-07-29T12:25:10;93496.03;;;34.64;31.59
11806;BME280;5960;42.602;23.482;2022-07-29T12:27:40;93496.81;;;34.64;29.91
11806;BME280;5960;42.602;23.482;2022-07-29T12:30:09;93493.91;;;34.94;30.73
11806;BME280;5960;42.602;23.482;2022-07-29T12:32:39;93489.41;;;35.15;29.74
11806;BME280;5960;42.602;23.482;2022-07-29T12:35:08;93493.16;;;35.35;30.31
11806;BME280;5960;42.602;23.482;2022-07-29T12:37:37;93489.00;;;35.66;29.41
11806;BME280;5960;42.602;23.482;2022-07-29T12:40:07;93486.66;;;36.09;29.86
11806;BME280;5960;42.602;23.482;2022-07-29T12:42:34;93488.94;;;36.51;28.63
11806;BME280;5960;42.602;23.482;2022-07-29T12:45:03;93481.75;;;36.30;28.13
11806;BME280;5960;42.602;23.482;2022-07-29T12:47:31;93489.69;;;36.20;28.12
11806;BME280;5960;42.602;23.482;2022-07-29T12:50:09;93487.25;;;35.74;28.60
11806;BME280;5960;42.602;23.482;2022-07-29T12:52:36;93478.81;;;35.66;29.23
11806;BME280;5960;42.602;23.482;2022-07-29T12:55:06;93480.19;;;35.73;29.11
11806;BME280;5960;42.602;23.482;2022-07-29T12:57:44;93476.88;;;35.14;29.35
11806;BME280;5960;42.602;23.482;2022-07-29T13:00:13;93478.03;;;35.00;29.67
11806;BME280;5960;42.602;23.482;2022-07-29T13:02:42;93465.44;;;35.24;29.46
11806;BME280;5960;42.602;23.482;2022-07-29T13:05:10;93467.91;;;35.82;29.22
11806;BME280;5960;42.602;23.482;2022-07-29T13:07:38;93471.19;;;36.17;28.82
11806;BME280;5960;42.602;23.482;2022-07-29T13:10:14;93457.25;;;35.65;29.13
11806;BME280;5960;42.602;23.482;2022-07-29T13:13:12;93471.50;;;35.70;28.46
11806;BME280;5960;42.602;23.482;2022-07-29T13:15:40;93458.38;;;35.92;28.09